Time,TemperatureF,DewpointF,PressureIn,WindDirection,WindDirectionDegrees,WindSpeedMPH,WindSpeedGustMPH,Humidity,HourlyPrecipIn,Conditions,Clouds,dailyrainin,SoftwareType,DateUTC
2013-04-16 00:02:00,14.0,8.0,-100.00,NNW,336,4.0,8.0,78,0.00,,,-99.99,,2013-04-16 06:02:00,
2013-04-16 00:12:00,14.0,8.0,-100.00,NNW,336,4.0,8.0,78,0.00,,,-99.99,,2013-04-16 06:12:00,
2013-04-16 00:22:00,13.0,8.0,-100.00,NNW,329,6.0,9.0,78,0.00,,,-99.99,,2013-04-16 06:22:00,
2013-04-16 00:30:00,11.0,8.0,-100.00,NNW,332,5.0,7.0,86,0.00,,,-99.99,,2013-04-16 06:30:00,
2013-04-16 00:32:00,13.0,8.0,-100.00,NNW,329,6.0,9.0,78,0.00,,,-99.99,,2013-04-16 06:32:00,
2013-04-16 00:42:00,12.0,8.0,-100.00,WNW,295,3.0,5.0,81,0.00,,,-99.99,,2013-04-16 06:42:00,
2013-04-16 00:52:00,12.0,8.0,-100.00,NW,325,4.0,8.0,84,0.00,,,-99.99,,2013-04-16 06:52:00,
2013-04-16 01:02:00,12.0,8.0,-100.00,NW,325,4.0,8.0,84,0.00,,,-99.99,,2013-04-16 07:02:00,
2013-04-16 01:12:00,11.0,8.0,-100.00,NNW,332,5.0,7.0,86,0.00,,,-99.99,,2013-04-16 07:12:00,
2013-04-16 01:22:00,11.0,8.0,-100.00,NNW,332,5.0,7.0,86,0.00,,,-99.99,,2013-04-16 07:22:00,
2013-04-16 01:42:00,12.0,9.0,-100.00,NW,326,7.0,11.0,87,0.00,,,-99.99,,2013-04-16 07:42:00,
2013-04-16 01:53:00,11.0,8.0,-100.00,NNW,328,7.0,9.0,89,0.00,,,-99.99,,2013-04-16 07:53:00,
2013-04-16 02:02:00,11.0,8.0,-100.00,NNW,328,7.0,9.0,89,0.00,,,-99.99,,2013-04-16 08:02:00,
2013-04-16 02:12:00,11.0,8.0,-100.00,NNW,337,5.0,6.0,89,0.00,,,-99.99,,2013-04-16 08:12:00,
2013-04-16 02:22:00,10.0,7.0,-100.00,NNW,330,3.0,5.0,89,0.00,,,-99.99,,2013-04-16 08:22:00,
2013-04-16 02:32:00,10.0,7.0,-100.00,NNW,330,3.0,5.0,89,0.00,,,-99.99,,2013-04-16 08:32:00,
2013-04-16 02:42:00,9.0,7.0,-100.00,NW,315,5.0,7.0,93,0.00,,,-99.99,,2013-04-16 08:42:00,
2013-04-16 02:52:00,8.0,6.0,-100.00,NW,306,3.0,4.0,91,0.00,,,-99.99,,2013-04-16 08:52:00,
2013-04-16 03:02:00,8.0,6.0,-100.00,NW,306,3.0,4.0,91,0.00,,,-99.99,,2013-04-16 09:02:00,
2013-04-16 03:12:00,9.0,7.0,-100.00,NW,312,6.0,7.0,92,0.00,,,-99.99,,2013-04-16 09:12:00,
2013-04-16 03:22:00,8.0,6.0,-100.00,NW,316,2.0,3.0,91,0.00,,,-99.99,,2013-04-16 09:22:00,
2013-04-16 03:32:00,8.0,6.0,-100.00,NW,316,2.0,3.0,91,0.00,,,-99.99,,2013-04-16 09:32:00,
2013-04-16 03:42:00,7.0,5.0,-100.00,NNW,335,2.0,4.0,91,0.00,,,-99.99,,2013-04-16 09:42:00,
2013-04-16 03:53:00,8.0,7.0,-100.00,NW,315,3.0,5.0,96,0.00,,,-99.99,,2013-04-16 09:53:00,
2013-04-16 04:03:00,8.0,7.0,-100.00,NW,315,3.0,5.0,96,0.00,,,-99.99,,2013-04-16 10:03:00,
2013-04-16 04:13:00,5.0,4.0,-100.00,WNW,291,3.0,3.0,92,0.00,,,-99.99,,2013-04-16 10:13:00,
2013-04-16 04:22:00,7.0,6.0,-100.00,NNW,330,4.0,5.0,95,0.00,,,-99.99,,2013-04-16 10:22:00,
2013-04-16 04:32:00,7.0,6.0,-100.00,NNW,330,4.0,5.0,95,0.00,,,-99.99,,2013-04-16 10:32:00,
2013-04-16 04:42:00,8.0,7.0,-100.00,NW,315,4.0,6.0,93,0.00,,,-99.99,,2013-04-16 10:42:00,
2013-04-16 04:53:00,8.0,6.0,-100.00,NW,325,5.0,6.0,93,0.00,,,-99.99,,2013-04-16 10:53:00,
2013-04-16 05:02:00,8.0,6.0,-100.00,NW,325,5.0,6.0,93,0.00,,,-99.99,,2013-04-16 11:02:00,
2013-04-16 05:12:00,8.0,6.0,-100.00,NW,320,5.0,7.0,93,0.00,,,-99.99,,2013-04-16 11:12:00,
2013-04-16 05:22:00,8.0,6.0,-100.00,NW,322,5.0,7.0,93,0.00,,,-99.99,,2013-04-16 11:22:00,
2013-04-16 05:30:00,8.0,7.0,-100.00,NNW,340,5.0,7.0,94,0.00,,,-99.99,,2013-04-16 11:30:00,
2013-04-16 05:32:00,8.0,6.0,-100.00,NW,322,5.0,7.0,93,0.00,,,-99.99,,2013-04-16 11:32:00,
2013-04-16 05:42:00,8.0,7.0,-100.00,NNW,330,5.0,7.0,94,0.00,,,-99.99,,2013-04-16 11:42:00,
2013-04-16 05:52:00,8.0,6.0,-100.00,NW,322,4.0,6.0,92,0.00,,,-99.99,,2013-04-16 11:52:00,
2013-04-16 06:02:00,8.0,6.0,-100.00,NW,322,4.0,6.0,92,0.00,,,-99.99,,2013-04-16 12:02:00,
2013-04-16 06:12:00,8.0,7.0,-100.00,NNW,340,5.0,7.0,94,0.00,,,-99.99,,2013-04-16 12:12:00,
2013-04-16 06:22:00,8.0,7.0,-100.00,NNW,340,5.0,7.0,94,0.00,,,-99.99,,2013-04-16 12:22:00,
2013-04-16 06:42:00,7.0,6.0,-100.00,NW,316,6.0,7.0,94,0.00,,,-99.99,,2013-04-16 12:42:00,
2013-04-16 06:52:00,6.0,5.0,-100.00,NW,304,4.0,7.0,94,0.00,,,-99.99,,2013-04-16 12:52:00,
2013-04-16 07:02:00,6.0,5.0,-100.00,NW,304,4.0,7.0,94,0.00,,,-99.99,,2013-04-16 13:02:00,
2013-04-16 07:12:00,6.0,5.0,-100.00,NW,311,5.0,7.0,95,0.00,,,-99.99,,2013-04-16 13:12:00,
2013-04-16 07:22:00,6.0,5.0,-100.00,NW,323,7.0,9.0,96,0.00,,,-99.99,,2013-04-16 13:22:00,
2013-04-16 07:32:00,6.0,5.0,-100.00,NW,323,7.0,9.0,96,0.00,,,-99.99,,2013-04-16 13:32:00,
2013-04-16 07:42:00,7.0,6.0,-100.00,NW,320,9.0,11.0,96,0.00,,,-99.99,,2013-04-16 13:42:00,
2013-04-16 07:52:00,8.0,7.0,-100.00,NW,325,8.0,10.0,95,0.00,,,-99.99,,2013-04-16 13:52:00,
2013-04-16 08:02:00,8.0,7.0,-100.00,NW,325,8.0,10.0,95,0.00,,,-99.99,,2013-04-16 14:02:00,
2013-04-16 08:12:00,8.0,6.0,-100.00,NW,316,6.0,10.0,94,0.00,,,-99.99,,2013-04-16 14:12:00,
2013-04-16 08:22:00,8.0,7.0,-100.00,NW,325,10.0,11.0,95,0.00,,,-99.99,,2013-04-16 14:22:00,
2013-04-16 08:32:00,8.0,7.0,-100.00,NW,325,10.0,11.0,95,0.00,,,-99.99,,2013-04-16 14:32:00,
2013-04-16 08:42:00,9.0,8.0,-100.00,NW,326,9.0,11.0,94,0.00,,,-99.99,,2013-04-16 14:42:00,
2013-04-16 08:52:00,10.0,9.0,-100.00,NNW,329,8.0,10.0,93,0.00,,,-99.99,,2013-04-16 14:52:00,
2013-04-16 09:02:00,10.0,9.0,-100.00,NNW,329,8.0,10.0,93,0.00,,,-99.99,,2013-04-16 15:02:00,
2013-04-16 09:12:00,10.0,8.0,-100.00,NNW,340,11.0,13.0,92,0.00,,,-99.99,,2013-04-16 15:12:00,
2013-04-16 09:22:00,11.0,9.0,-100.00,NW,326,6.0,9.0,91,0.00,,,-99.99,,2013-04-16 15:22:00,
2013-04-16 09:32:00,11.0,9.0,-100.00,NW,326,6.0,9.0,91,0.00,,,-99.99,,2013-04-16 15:32:00,
2013-04-16 09:43:00,12.0,8.0,-100.00,NNW,329,9.0,11.0,84,0.00,,,-99.99,,2013-04-16 15:43:00,
2013-04-16 09:53:00,14.0,9.0,-100.00,NW,319,8.0,10.0,82,0.00,,,-99.99,,2013-04-16 15:53:00,
2013-04-16 10:03:00,14.0,9.0,-100.00,NW,319,8.0,10.0,82,0.00,,,-99.99,,2013-04-16 16:03:00,
2013-04-16 10:13:00,14.0,9.0,-100.00,NW,319,8.0,10.0,82,0.00,,,-99.99,,2013-04-16 16:13:00,
2013-04-16 10:22:00,15.0,9.0,-100.00,NW,325,8.0,12.0,75,0.00,,,-99.99,,2013-04-16 16:22:00,
2013-04-16 10:32:00,15.0,9.0,-100.00,NW,325,8.0,12.0,75,0.00,,,-99.99,,2013-04-16 16:32:00,
2013-04-16 10:42:00,15.0,8.0,-100.00,NW,312,8.0,12.0,76,0.00,,,-99.99,,2013-04-16 16:42:00,
2013-04-16 10:52:00,15.0,9.0,-100.00,NNW,332,10.0,12.0,77,0.00,,,-99.99,,2013-04-16 16:52:00,
2013-04-16 11:02:00,15.0,9.0,-100.00,NNW,332,10.0,12.0,77,0.00,,,-99.99,,2013-04-16 17:02:00,
2013-04-16 11:12:00,15.0,10.0,-100.00,NW,318,9.0,13.0,78,0.00,,,-99.99,,2013-04-16 17:12:00,
2013-04-16 11:22:00,17.0,9.0,-100.00,NW,326,9.0,13.0,73,0.00,,,-99.99,,2013-04-16 17:22:00,
2013-04-16 11:32:00,17.0,9.0,-100.00,NW,326,9.0,13.0,73,0.00,,,-99.99,,2013-04-16 17:32:00,
2013-04-16 11:43:00,17.0,9.0,-100.00,NW,323,9.0,12.0,73,0.00,,,-99.99,,2013-04-16 17:43:00,
2013-04-16 11:53:00,18.0,10.0,-100.00,NW,326,11.0,15.0,71,0.00,,,-99.99,,2013-04-16 17:53:00,
2013-04-16 12:02:00,18.0,10.0,-100.00,NW,326,11.0,15.0,71,0.00,,,-99.99,,2013-04-16 18:02:00,
2013-04-16 12:12:00,18.0,10.0,-100.00,NW,326,11.0,15.0,71,0.00,,,-99.99,,2013-04-16 18:12:00,
2013-04-16 12:22:00,18.0,10.0,-100.00,NW,323,8.0,10.0,70,0.00,,,-99.99,,2013-04-16 18:22:00,
2013-04-16 12:30:00,20.0,11.0,-100.00,NW,309,9.0,13.0,69,0.00,,,-99.99,,2013-04-16 18:30:00,
2013-04-16 12:32:00,18.0,10.0,-100.00,NW,323,8.0,10.0,70,0.00,,,-99.99,,2013-04-16 18:32:00,
2013-04-16 12:42:00,19.0,10.0,-100.00,NW,315,8.0,11.0,69,0.00,,,-99.99,,2013-04-16 18:42:00,
2013-04-16 12:52:00,18.0,11.0,-100.00,NW,320,10.0,14.0,72,0.00,,,-99.99,,2013-04-16 18:52:00,
2013-04-16 13:02:00,18.0,11.0,-100.00,NW,320,10.0,14.0,72,0.00,,,-99.99,,2013-04-16 19:02:00,
2013-04-16 13:12:00,20.0,11.0,-100.00,NW,309,9.0,13.0,69,0.00,,,-99.99,,2013-04-16 19:12:00,
2013-04-16 13:22:00,20.0,11.0,-100.00,NW,309,9.0,13.0,69,0.00,,,-99.99,,2013-04-16 19:22:00,
2013-04-16 13:42:00,19.0,11.0,-100.00,NW,322,10.0,14.0,70,0.00,,,-99.99,,2013-04-16 19:42:00,
2013-04-16 13:52:00,20.0,11.0,-100.00,NNW,337,9.0,13.0,68,0.00,,,-99.99,,2013-04-16 19:52:00,
2013-04-16 14:02:00,20.0,11.0,-100.00,NNW,337,9.0,13.0,68,0.00,,,-99.99,,2013-04-16 20:02:00,
2013-04-16 14:12:00,20.0,12.0,-100.00,NW,320,6.0,9.0,72,0.00,,,-99.99,,2013-04-16 20:12:00,
2013-04-16 14:22:00,20.0,11.0,-100.00,NW,318,10.0,14.0,69,0.00,,,-99.99,,2013-04-16 20:22:00,
2013-04-16 14:30:00,21.0,13.0,-100.00,NNE,17,7.0,9.0,73,0.00,,,-99.99,,2013-04-16 20:30:00,
2013-04-16 14:32:00,20.0,11.0,-100.00,NW,318,10.0,14.0,69,0.00,,,-99.99,,2013-04-16 20:32:00,
2013-04-16 14:42:00,21.0,11.0,-100.00,NW,311,10.0,16.0,65,0.00,,,-99.99,,2013-04-16 20:42:00,
2013-04-16 14:52:00,22.0,12.0,-100.00,North,6,7.0,11.0,66,0.00,,,-99.99,,2013-04-16 20:52:00,
2013-04-16 15:02:00,22.0,12.0,-100.00,North,6,7.0,11.0,66,0.00,,,-99.99,,2013-04-16 21:02:00,
2013-04-16 15:12:00,22.0,12.0,-100.00,North,6,7.0,11.0,66,0.00,,,-99.99,,2013-04-16 21:12:00,
2013-04-16 15:22:00,21.0,13.0,-100.00,NNE,17,7.0,9.0,73,0.00,,,-99.99,,2013-04-16 21:22:00,
2013-04-16 15:43:00,22.0,14.0,-100.00,North,359,6.0,8.0,72,0.00,,,-99.99,,2013-04-16 21:43:00,
2013-04-16 15:53:00,20.0,15.0,-100.00,North,6,8.0,13.0,80,0.04,,,-99.99,,2013-04-16 21:53:00,
2013-04-16 16:02:00,20.0,15.0,-100.00,North,6,8.0,13.0,80,0.04,,,-99.99,,2013-04-16 22:02:00,
2013-04-16 16:12:00,20.0,17.0,-100.00,NW,326,5.0,7.0,88,0.00,,,-99.99,,2013-04-16 22:12:00,
2013-04-16 16:22:00,22.0,17.0,-100.00,North,3,7.0,10.0,80,0.00,,,-99.99,,2013-04-16 22:22:00,
2013-04-16 16:32:00,22.0,17.0,-100.00,North,3,7.0,10.0,80,0.00,,,-99.99,,2013-04-16 22:32:00,
2013-04-16 16:42:00,22.0,17.0,-100.00,NW,326,7.0,9.0,81,0.00,,,-99.99,,2013-04-16 22:42:00,
2013-04-16 16:52:00,22.0,18.0,-100.00,NW,323,7.0,10.0,83,0.04,,,-99.99,,2013-04-16 22:52:00,
2013-04-16 17:02:00,22.0,18.0,-100.00,NW,323,7.0,10.0,83,0.04,,,-99.99,,2013-04-16 23:02:00,
2013-04-16 17:12:00,23.0,18.0,-100.00,NW,320,9.0,11.0,83,0.00,,,-99.99,,2013-04-16 23:12:00,
2013-04-16 17:22:00,23.0,18.0,-100.00,NW,320,9.0,11.0,83,0.00,,,-99.99,,2013-04-16 23:22:00,
2013-04-16 17:32:00,23.0,18.0,-100.00,NW,320,9.0,11.0,83,0.00,,,-99.99,,2013-04-16 23:32:00,
2013-04-16 17:42:00,22.0,18.0,-100.00,NNW,328,11.0,15.0,85,0.00,,,-99.99,,2013-04-16 23:42:00,
2013-04-16 17:52:00,22.0,18.0,-100.00,NW,311,9.0,13.0,86,0.00,,,-99.99,,2013-04-16 23:52:00,
2013-04-16 18:02:00,22.0,18.0,-100.00,NW,311,9.0,13.0,86,0.00,,,-99.99,,2013-04-17 00:02:00,
2013-04-16 18:12:00,22.0,18.0,-100.00,NW,315,8.0,11.0,87,0.04,,,-99.99,,2013-04-17 00:12:00,
2013-04-16 18:22:00,22.0,18.0,-100.00,NW,315,8.0,11.0,87,0.04,,,-99.99,,2013-04-17 00:22:00,
2013-04-16 18:42:00,22.0,18.0,-100.00,ESE,119,3.0,6.0,84,0.00,,,-99.99,,2013-04-17 00:42:00,
2013-04-16 18:52:00,21.0,18.0,-100.00,NNE,24,3.0,7.0,89,0.12,,,-99.99,,2013-04-17 00:52:00,
2013-04-16 19:02:00,21.0,18.0,-100.00,NNE,24,3.0,7.0,89,0.12,,,-99.99,,2013-04-17 01:02:00,
2013-04-16 19:12:00,19.0,18.0,-100.00,NNE,28,2.0,6.0,95,0.08,,,-99.99,,2013-04-17 01:12:00,
2013-04-16 19:22:00,19.0,18.0,-100.00,NNE,28,2.0,6.0,95,0.08,,,-99.99,,2013-04-17 01:22:00,
2013-04-16 19:52:00,19.0,18.0,-100.00,NW,308,3.0,6.0,95,0.00,,,-99.99,,2013-04-17 01:52:00,
2013-04-16 20:02:00,19.0,18.0,-100.00,NW,308,3.0,6.0,95,0.00,,,-99.99,,2013-04-17 02:02:00,
2013-04-16 20:12:00,19.0,18.0,-100.00,NW,315,2.0,3.0,95,0.08,,,-99.99,,2013-04-17 02:12:00,
2013-04-16 20:22:00,18.0,17.0,-100.00,North,350,2.0,4.0,94,0.08,,,-99.99,,2013-04-17 02:22:00,
2013-04-16 20:32:00,18.0,17.0,-100.00,North,350,2.0,4.0,94,0.08,,,-99.99,,2013-04-17 02:32:00,
2013-04-16 20:42:00,18.0,17.0,-100.00,NW,304,1.0,3.0,95,0.16,,,-99.99,,2013-04-17 02:42:00,
2013-04-16 20:52:00,17.0,16.0,-100.00,WNW,301,2.0,4.0,96,0.00,,,-99.99,,2013-04-17 02:52:00,
2013-04-16 21:02:00,17.0,16.0,-100.00,WNW,301,2.0,4.0,96,0.00,,,-99.99,,2013-04-17 03:02:00,
2013-04-16 21:12:00,17.0,16.0,-100.00,NNE,23,0.0,1.0,96,0.00,,,-99.99,,2013-04-17 03:12:00,
2013-04-16 21:22:00,15.0,14.0,-100.00,WNW,282,1.0,2.0,94,0.00,,,-99.99,,2013-04-17 03:22:00,
2013-04-16 21:32:00,15.0,14.0,-100.00,WNW,282,1.0,2.0,94,0.00,,,-99.99,,2013-04-17 03:32:00,
2013-04-16 21:42:00,15.0,14.0,-100.00,WNW,289,2.0,3.0,96,0.00,,,-99.99,,2013-04-17 03:42:00,
2013-04-16 21:53:00,15.0,14.0,-100.00,WNW,289,2.0,3.0,96,0.00,,,-99.99,,2013-04-17 03:53:00,
2013-04-16 22:02:00,15.0,14.0,-100.00,WNW,289,2.0,3.0,96,0.00,,,-99.99,,2013-04-17 04:02:00,
2013-04-16 22:12:00,15.0,14.0,-100.00,NNE,18,3.0,4.0,93,0.00,,,-99.99,,2013-04-17 04:12:00,
2013-04-16 22:22:00,15.0,13.0,-100.00,North,356,2.0,6.0,93,0.00,,,-99.99,,2013-04-17 04:22:00,
2013-04-16 22:33:00,15.0,13.0,-100.00,North,356,2.0,6.0,93,0.00,,,-99.99,,2013-04-17 04:33:00,
2013-04-16 22:42:00,15.0,13.0,-100.00,NNW,329,4.0,6.0,90,0.00,,,-99.99,,2013-04-17 04:42:00,
2013-04-16 22:52:00,15.0,13.0,-100.00,NNW,329,4.0,6.0,90,0.00,,,-99.99,,2013-04-17 04:52:00,
2013-04-16 23:02:00,15.0,13.0,-100.00,NNW,329,4.0,6.0,90,0.00,,,-99.99,,2013-04-17 05:02:00,
2013-04-16 23:12:00,15.0,12.0,-100.00,WNW,282,0.0,1.0,90,0.00,,,-99.99,,2013-04-17 05:12:00,
2013-04-16 23:22:00,13.0,11.0,-100.00,WNW,282,1.0,1.0,93,0.00,,,-99.99,,2013-04-17 05:22:00,
2013-04-16 23:32:00,13.0,11.0,-100.00,WNW,282,1.0,1.0,93,0.00,,,-99.99,,2013-04-17 05:32:00,
2013-04-16 23:42:00,11.0,9.0,-100.00,NNW,344,1.0,1.0,93,0.00,,,-99.99,,2013-04-17 05:42:00,
2013-04-16 23:52:00,9.0,8.0,-100.00,NNW,340,1.0,2.0,94,0.00,,,-99.99,,2013-04-17 05:52:00,